Time;durP1;ratioP1;P1;durP2;ratioP2;P2;SDS_P1;SDS_P2;PMS_P1;PMS_P2;Temp;Humidity;BMP_temperature;BMP_pressure;BME280_temperature;BME280_humidity;BME280_pressure;Samples;Min_cycle;Max_cycle;Signal;HPM_P1;HPM_P2
2021/03/16 00:00:51;;;;;;;2.35;1.05;;;17.70;61.30;;;;;;10459310;28;20037;-56
2021/03/16 00:05:52;;;;;;;3.65;1.20;;;17.70;61.30;;;;;;10470320;28;20021;-55
2021/03/16 00:10:53;;;;;;;2.70;1.00;;;17.80;61.30;;;;;;10488489;28;20048;-55
2021/03/16 00:15:54;;;;;;;3.70;1.30;;;17.70;61.20;;;;;;10478673;28;20513;-55
2021/03/16 00:20:55;;;;;;;3.28;1.25;;;17.80;61.20;;;;;;10458409;28;20037;-55
2021/03/16 00:25:55;;;;;;;3.40;1.00;;;17.80;61.20;;;;;;10458125;28;20049;-55
2021/03/16 00:30:56;;;;;;;2.22;0.77;;;17.80;61.10;;;;;;10470427;28;20397;-55
2021/03/16 00:35:57;;;;;;;2.90;1.40;;;17.80;61.00;;;;;;10476238;28;20150;-54
2021/03/16 00:40:57;;;;;;;2.35;0.80;;;17.80;61.00;;;;;;10464873;28;20068;-54
2021/03/16 00:46:00;;;;;;;3.05;0.90;;;17.80;61.00;;;;;;10478492;28;20029;-55
2021/03/16 00:51:01;;;;;;;2.22;1.05;;;17.80;61.00;;;;;;10495872;28;20051;-55
2021/03/16 00:56:02;;;;;;;1.58;0.63;;;17.70;60.90;;;;;;10494972;28;20032;-54
2021/03/16 01:01:06;;;;;;;5.47;0.82;;;17.80;60.90;;;;;;10498249;28;20029;-54
2021/03/16 01:06:07;;;;;;;1.92;0.70;;;17.80;60.90;;;;;;10470366;28;20059;-55
2021/03/16 01:11:08;;;;;;;1.58;0.68;;;17.80;60.80;;;;;;10456489;28;20107;-55
2021/03/16 01:16:08;;;;;;;2.55;0.80;;;17.80;60.80;;;;;;10471649;28;20047;-55
2021/03/16 01:21:09;;;;;;;1.73;0.80;;;17.80;60.80;;;;;;10497847;28;20111;-54
2021/03/16 01:26:10;;;;;;;2.78;0.80;;;17.80;60.80;;;;;;10468865;28;20029;-54
2021/03/16 01:31:10;;;;;;;1.42;0.70;;;17.80;60.70;;;;;;10455879;28;20033;-55
2021/03/16 01:36:11;;;;;;;2.90;1.20;;;17.80;60.70;;;;;;10474987;28;20399;-55
2021/03/16 01:41:12;;;;;;;3.53;1.08;;;17.80;60.70;;;;;;10461170;28;20116;-55
2021/03/16 01:46:14;;;;;;;1.73;0.50;;;17.80;60.70;;;;;;10474585;28;20540;-55
2021/03/16 01:51:14;;;;;;;1.20;0.75;;;17.80;60.70;;;;;;10493440;28;20472;-54
2021/03/16 01:56:15;;;;;;;1.92;0.82;;;17.80;60.70;;;;;;10465832;28;20155;-55
2021/03/16 02:01:16;;;;;;;1.85;0.55;;;17.80;60.60;;;;;;10455143;28;20040;-55
2021/03/16 02:06:28;;;;;;;0.55;0.40;;;17.80;60.60;;;;;;10479169;28;20032;-55
2021/03/16 02:11:43;;;;;;;1.52;0.65;;;17.80;60.60;;;;;;10496212;28;20068;-55
2021/03/16 02:17:00;;;;;;;1.85;0.70;;;17.80;60.60;;;;;;10461733;28;20577;-53
2021/03/16 02:22:01;;;;;;;1.70;0.50;;;17.70;60.50;;;;;;10453909;28;20068;-55
2021/03/16 02:27:19;;;;;;;1.77;0.60;;;17.80;60.60;;;;;;10468423;28;20048;-55
2021/03/16 02:32:25;;;;;;;1.45;0.75;;;17.80;60.50;;;;;;10454825;28;20071;-56
2021/03/16 02:37:28;;;;;;;3.13;0.73;;;17.80;60.50;;;;;;10479713;28;20064;-55
2021/03/16 02:42:33;;;;;;;1.77;0.80;;;17.80;60.40;;;;;;10453176;28;20082;-55
2021/03/16 02:47:35;;;;;;;2.55;0.50;;;17.80;60.40;;;;;;10479116;28;20028;-54
2021/03/16 02:52:37;;;;;;;0.85;0.40;;;17.80;60.40;;;;;;10500107;28;20036;-51
2021/03/16 02:57:42;;;;;;;2.33;0.60;;;17.80;60.40;;;;;;10461839;28;20477;-52
2021/03/16 03:02:46;;;;;;;2.35;0.88;;;17.80;60.40;;;;;;10479129;28;20048;-52
2021/03/16 03:07:48;;;;;;;2.88;0.70;;;17.80;60.30;;;;;;10460187;28;20044;-53
2021/03/16 03:12:53;;;;;;;1.27;0.43;;;17.80;60.30;;;;;;10461387;28;20032;-53
2021/03/16 03:17:54;;;;;;;2.10;0.43;;;17.80;60.50;;;;;;10502474;28;20397;-53
2021/03/16 03:23:17;;;;;;;2.33;0.73;;;17.80;60.20;;;;;;10495474;28;20029;-53
2021/03/16 03:28:23;;;;;;;2.45;0.50;;;17.80;60.20;;;;;;10468181;28;20061;-53
2021/03/16 03:33:25;;;;;;;1.33;0.60;;;17.80;60.10;;;;;;10464315;28;20021;-53
2021/03/16 03:38:27;;;;;;;1.08;0.40;;;17.80;60.20;;;;;;10473622;28;20040;-51
2021/03/16 03:43:32;;;;;;;1.65;0.50;;;17.80;60.10;;;;;;10458826;28;20036;-52
2021/03/16 03:48:34;;;;;;;1.60;0.50;;;17.80;60.10;;;;;;10476217;28;20086;-52
2021/03/16 03:53:35;;;;;;;1.60;0.50;;;17.80;60.10;;;;;;10462751;28;20100;-52
2021/03/16 03:58:38;;;;;;;1.02;0.47;;;17.80;60.10;;;;;;10499657;28;20500;-52
2021/03/16 04:03:39;;;;;;;1.33;0.70;;;17.80;60.10;;;;;;10485926;28;20032;-53
2021/03/16 04:08:41;;;;;;;2.20;0.50;;;17.80;60.10;;;;;;10457710;28;20489;-53
2021/03/16 04:13:43;;;;;;;1.75;0.77;;;17.80;60.00;;;;;;10466823;28;20057;-53
2021/03/16 04:18:44;;;;;;;0.50;0.30;;;17.80;60.10;;;;;;10485297;28;20029;-53
2021/03/16 04:23:46;;;;;;;1.50;0.60;;;17.80;60.00;;;;;;10456909;28;20053;-53
2021/03/16 04:28:46;;;;;;;2.60;0.40;;;17.80;60.00;;;;;;10458312;28;20025;-53
2021/03/16 04:33:47;;;;;;;1.27;0.40;;;17.80;60.00;;;;;;10457854;28;20071;-53
2021/03/16 04:38:48;;;;;;;1.42;0.47;;;17.80;60.00;;;;;;10469517;28;20032;-52
2021/03/16 04:43:48;;;;;;;2.35;0.50;;;17.90;60.00;;;;;;10460053;28;20064;-53
2021/03/16 04:48:50;;;;;;;0.63;0.30;;;17.90;60.00;;;;;;10477463;28;20536;-53
2021/03/16 04:53:50;;;;;;;1.45;0.50;;;17.90;59.90;;;;;;10462358;28;20119;-53
2021/03/16 04:58:51;;;;;;;1.80;0.50;;;17.80;59.90;;;;;;10497124;28;20040;-53
2021/03/16 05:03:52;;;;;;;2.70;0.40;;;17.80;59.90;;;;;;10491367;28;20535;-53
2021/03/16 05:08:53;;;;;;;0.73;0.35;;;17.80;59.90;;;;;;10473724;28;20107;-53
2021/03/16 05:13:53;;;;;;;1.48;0.50;;;17.80;59.90;;;;;;10466027;28;20048;-53
2021/03/16 05:18:54;;;;;;;0.98;0.30;;;17.80;59.90;;;;;;10497437;28;20067;-53
2021/03/16 05:23:55;;;;;;;1.42;0.50;;;17.80;59.90;;;;;;10481645;28;20107;-52
2021/03/16 05:28:55;;;;;;;1.17;0.50;;;17.80;59.90;;;;;;10495573;28;20040;-54
2021/03/16 05:33:56;;;;;;;1.52;0.35;;;17.80;59.90;;;;;;10474295;28;20036;-52
2021/03/16 05:38:57;;;;;;;1.50;0.60;;;17.80;59.90;;;;;;10477941;28;20028;-53
2021/03/16 05:44:00;;;;;;;1.10;0.40;;;17.80;59.90;;;;;;10474272;28;20085;-53
2021/03/16 05:49:04;;;;;;;1.70;0.40;;;17.80;59.90;;;;;;10472737;28;20028;-54
2021/03/16 05:54:05;;;;;;;0.50;0.35;;;17.80;59.90;;;;;;10471364;28;20143;-53
2021/03/16 05:59:08;;;;;;;1.80;0.50;;;17.80;59.90;;;;;;10455351;28;20492;-52
2021/03/16 06:04:08;;;;;;;5.50;0.75;;;17.80;59.90;;;;;;10463598;28;20032;-53
2021/03/16 06:09:09;;;;;;;3.40;0.63;;;17.70;59.70;;;;;;10494113;28;20122;-53
2021/03/16 06:14:10;;;;;;;6.10;0.57;;;17.80;60.00;;;;;;10473166;28;20127;-55
2021/03/16 06:19:11;;;;;;;2.47;0.50;;;17.80;61.10;;;;;;10496309;28;20032;-52
2021/03/16 06:24:14;;;;;;;4.80;0.73;;;17.80;61.00;;;;;;10465563;28;20017;-54
2021/03/16 06:29:15;;;;;;;8.95;1.33;;;17.90;61.50;;;;;;10461971;28;20032;-53
2021/03/16 06:34:25;;;;;;;3.58;0.52;;;17.90;61.70;;;;;;10461879;28;20040;-53
2021/03/16 06:39:27;;;;;;;7.95;0.90;;;17.90;61.90;;;;;;10462775;28;20451;-53
2021/03/16 06:44:28;;;;;;;20.65;3.53;;;17.90;62.30;;;;;;10461779;28;20025;-53
2021/03/16 06:49:33;;;;;;;6.22;0.90;;;17.90;62.00;;;;;;10470658;28;20024;-56
2021/03/16 06:54:33;;;;;;;7.25;1.05;;;17.80;61.50;;;;;;10479958;28;20408;-54
2021/03/16 06:59:34;;;;;;;4.97;1.02;;;17.80;61.30;;;;;;10479809;28;20115;-57
2021/03/16 07:04:43;;;;;;;6.15;1.27;;;17.70;60.90;;;;;;10462533;28;20044;-57
2021/03/16 07:09:45;;;;;;;3.75;1.30;;;17.70;60.80;;;;;;10454777;28;20021;-56
2021/03/16 07:14:47;;;;;;;2.63;0.85;;;17.70;60.70;;;;;;10452467;28;20086;-57
2021/03/16 07:19:49;;;;;;;3.83;1.13;;;17.70;60.70;;;;;;10447442;28;20453;-56
2021/03/16 07:24:50;;;;;;;4.10;0.90;;;17.70;60.60;;;;;;10464634;28;20390;-57
2021/03/16 07:29:51;;;;;;;8.38;0.90;;;17.70;60.60;;;;;;10448311;28;20112;-57
2021/03/16 07:34:53;;;;;;;5.55;0.98;;;17.70;60.40;;;;;;10451661;28;20036;-56
2021/03/16 07:39:54;;;;;;;3.72;0.90;;;17.70;60.30;;;;;;10459992;28;20168;-57
2021/03/16 07:44:56;;;;;;;4.22;1.15;;;17.70;60.30;;;;;;10468371;28;20025;-57
2021/03/16 07:50:05;;;;;;;2.53;1.08;;;17.70;60.30;;;;;;10443480;28;20036;-55
2021/03/16 07:55:06;;;;;;;2.63;0.70;;;17.60;60.20;;;;;;10475297;28;20390;-57
2021/03/16 08:00:08;;;;;;;5.43;1.10;;;17.70;60.20;;;;;;10451373;28;20516;-56
2021/03/16 08:05:17;;;;;;;1.38;0.68;;;17.70;60.10;;;;;;10452110;28;20441;-57
2021/03/16 08:10:29;;;;;;;3.53;1.00;;;17.70;60.00;;;;;;10451775;28;20037;-55
2021/03/16 08:16:08;;;;;;;5.38;1.13;;;17.70;59.90;;;;;;10451632;28;20052;-57
2021/03/16 08:21:12;;;;;;;2.58;1.00;;;17.70;59.80;;;;;;10459585;28;20107;-57
2021/03/16 08:26:15;;;;;;;3.13;0.73;;;17.70;59.80;;;;;;10451358;28;20029;-57
2021/03/16 08:31:16;;;;;;;4.45;1.05;;;17.70;59.80;;;;;;10451362;28;20558;-57
2021/03/16 08:36:17;;;;;;;2.15;0.65;;;17.70;59.80;;;;;;10451024;28;20032;-57
2021/03/16 08:41:18;;;;;;;4.38;1.00;;;17.60;59.80;;;;;;10450939;28;20039;-57
2021/03/16 08:46:30;;;;;;;2.80;0.80;;;17.60;59.80;;;;;;10450656;28;20397;-57
2021/03/16 08:51:33;;;;;;;2.03;0.60;;;17.60;59.70;;;;;;10450188;28;20032;-57
2021/03/16 08:56:33;;;;;;;1.92;0.70;;;17.60;59.70;;;;;;10479764;28;20063;-57
2021/03/16 09:01:35;;;;;;;3.47;0.70;;;17.60;59.70;;;;;;10450056;28;20098;-57
2021/03/16 09:06:36;;;;;;;2.75;1.02;;;17.60;59.70;;;;;;10449328;28;20033;-57
2021/03/16 09:11:43;;;;;;;2.78;0.60;;;17.60;59.70;;;;;;10449861;28;20039;-57
2021/03/16 09:16:53;;;;;;;1.92;0.80;;;17.60;59.70;;;;;;10448057;28;20592;-56
2021/03/16 09:22:01;;;;;;;1.73;0.77;;;17.60;59.70;;;;;;10449381;28;20083;-56
2021/03/16 09:27:06;;;;;;;1.95;0.57;;;17.60;59.70;;;;;;10449184;28;20485;-57
2021/03/16 09:32:10;;;;;;;1.98;0.60;;;17.50;59.80;;;;;;10449088;28;20090;-57
2021/03/16 09:37:16;;;;;;;2.15;0.80;;;17.60;59.90;;;;;;10445373;28;20094;-56
2021/03/16 09:42:17;;;;;;;2.75;0.52;;;17.60;59.80;;;;;;10448744;28;20501;-56
2021/03/16 09:47:25;;;;;;;2.00;0.90;;;17.50;59.80;;;;;;10448535;28;20061;-56
2021/03/16 09:52:26;;;;;;;1.33;0.57;;;17.50;59.80;;;;;;10448680;28;20029;-56
2021/03/16 09:57:33;;;;;;;1.80;0.65;;;17.50;59.90;;;;;;10471506;28;20115;-56
2021/03/16 10:02:36;;;;;;;2.35;0.60;;;17.50;59.90;;;;;;10453505;28;20090;-56
2021/03/16 10:07:38;;;;;;;1.55;0.55;;;17.50;59.80;;;;;;10456724;28;20025;-57
2021/03/16 10:12:48;;;;;;;3.13;1.00;;;17.50;59.80;;;;;;10456654;28;20033;-56
2021/03/16 10:17:50;;;;;;;2.95;0.82;;;17.50;59.80;;;;;;10471543;28;20052;-56
2021/03/16 10:22:55;;;;;;;1.80;0.65;;;17.50;59.80;;;;;;10456099;28;20560;-57
2021/03/16 10:28:02;;;;;;;3.83;0.93;;;17.50;59.70;;;;;;10454679;28;20037;-56
2021/03/16 10:33:07;;;;;;;2.80;0.52;;;17.50;59.80;;;;;;10455835;28;20504;-56
2021/03/16 10:38:08;;;;;;;1.58;0.73;;;17.50;59.90;;;;;;10455770;28;20109;-57
2021/03/16 10:43:09;;;;;;;3.05;0.75;;;17.40;60.00;;;;;;10455502;28;20029;-56
2021/03/16 10:48:10;;;;;;;1.45;0.50;;;17.40;60.70;;;;;;10455558;28;20120;-57
2021/03/16 10:53:10;;;;;;;2.63;0.60;;;17.40;61.00;;;;;;10456034;28;20104;-57
2021/03/16 10:58:11;;;;;;;2.15;0.50;;;17.40;60.70;;;;;;10454897;28;20040;-56
2021/03/16 11:03:12;;;;;;;0.77;0.32;;;17.30;60.50;;;;;;10459622;28;20617;-56
2021/03/16 11:08:13;;;;;;;1.05;0.52;;;17.30;60.60;;;;;;10454612;28;20063;-57
2021/03/16 11:13:13;;;;;;;4.00;0.60;;;17.20;60.60;;;;;;10453794;28;20437;-56
2021/03/16 11:18:14;;;;;;;1.95;0.70;;;17.20;60.60;;;;;;10453964;28;20112;-57
2021/03/16 11:23:15;;;;;;;2.92;0.68;;;17.20;60.40;;;;;;10457016;28;20044;-57
2021/03/16 11:28:16;;;;;;;1.67;1.17;;;17.20;60.60;;;;;;10460656;28;20496;-56
2021/03/16 11:33:17;;;;;;;2.65;0.55;;;17.20;61.00;;;;;;10451287;28;20113;-56
2021/03/16 11:38:17;;;;;;;2.55;1.05;;;17.20;60.90;;;;;;10452377;28;20087;-57
2021/03/16 11:43:18;;;;;;;2.47;0.60;;;17.30;60.70;;;;;;10450472;28;20039;-54
2021/03/16 11:48:19;;;;;;;2.22;0.65;;;17.30;60.90;;;;;;10457973;28;20033;-55
2021/03/16 11:53:20;;;;;;;1.88;0.50;;;17.30;60.70;;;;;;10449507;28;20486;-56
2021/03/16 11:58:21;;;;;;;2.50;0.88;;;17.30;61.00;;;;;;10433899;28;20041;-55
2021/03/16 12:03:21;;;;;;;3.20;0.93;;;17.30;61.10;;;;;;10463665;28;20124;-55
2021/03/16 12:08:22;;;;;;;1.65;0.30;;;17.30;61.00;;;;;;10452132;28;20107;-55
2021/03/16 12:13:23;;;;;;;3.10;0.88;;;17.40;61.30;;;;;;10450652;28;20132;-55
2021/03/16 12:18:24;;;;;;;2.05;0.50;;;17.40;61.10;;;;;;10451443;28;20045;-54
2021/03/16 12:23:27;;;;;;;2.33;0.85;;;17.30;61.20;;;;;;10464749;28;20037;-55
2021/03/16 12:28:28;;;;;;;3.80;0.57;;;17.30;61.30;;;;;;10458745;28;20033;-57
2021/03/16 12:33:29;;;;;;;1.75;0.57;;;17.30;61.10;;;;;;10455734;28;20040;-57
2021/03/16 12:38:30;;;;;;;2.38;0.50;;;17.20;61.00;;;;;;10455205;28;20040;-57
2021/03/16 12:43:31;;;;;;;2.05;0.63;;;17.20;61.00;;;;;;10470189;28;20451;-56
2021/03/16 12:48:31;;;;;;;1.88;0.50;;;17.20;60.90;;;;;;10460156;28;20033;-56
2021/03/16 12:53:32;;;;;;;4.93;1.63;;;17.10;61.30;;;;;;10458389;28;20131;-57
2021/03/16 12:58:33;;;;;;;1.50;0.43;;;17.20;61.00;;;;;;10464675;28;20185;-56
2021/03/16 13:03:34;;;;;;;2.15;0.77;;;17.20;60.80;;;;;;10459123;28;20033;-56
2021/03/16 13:08:34;;;;;;;3.10;0.50;;;17.20;60.80;;;;;;10454647;28;20515;-56
2021/03/16 13:13:35;;;;;;;1.58;0.60;;;17.20;60.70;;;;;;10482691;28;20475;-56
2021/03/16 13:18:36;;;;;;;3.67;0.50;;;17.20;60.60;;;;;;10461974;28;20127;-56
2021/03/16 13:23:36;;;;;;;17.08;1.92;;;17.20;60.80;;;;;;10449367;28;20067;-56
2021/03/16 13:28:37;;;;;;;12.38;1.42;;;17.20;61.00;;;;;;10465817;28;20446;-60
2021/03/16 13:33:38;;;;;;;11.13;1.38;;;17.30;61.80;;;;;;10464720;28;20104;-56
2021/03/16 13:38:39;;;;;;;7.97;1.02;;;17.30;61.90;;;;;;10462272;28;20035;-55
2021/03/16 13:43:40;;;;;;;7.03;1.40;;;17.30;61.70;;;;;;10463514;28;20087;-54
2021/03/16 13:48:41;;;;;;;12.57;1.77;;;17.30;61.80;;;;;;10463354;28;20082;-56
2021/03/16 13:53:42;;;;;;;20.33;2.00;;;17.40;62.00;;;;;;10451755;28;20043;-57
2021/03/16 13:58:42;;;;;;;13.43;2.17;;;17.40;61.80;;;;;;10447697;28;20033;-57
2021/03/16 14:03:43;;;;;;;12.15;1.73;;;17.50;61.80;;;;;;10453990;28;20103;-58
2021/03/16 14:08:43;;;;;;;19.33;2.50;;;17.40;62.30;;;;;;10447051;28;20116;-60
2021/03/16 14:13:44;;;;;;;13.50;1.80;;;17.40;63.40;;;;;;10465986;28;20116;-60
2021/03/16 14:18:45;;;;;;;16.20;3.40;;;17.40;64.50;;;;;;10446205;28;20448;-59
2021/03/16 14:23:46;;;;;;;13.95;2.55;;;17.30;65.80;;;;;;10448000;28;20452;-59
2021/03/16 14:28:47;;;;;;;13.45;2.38;;;17.30;65.10;;;;;;10475780;28;20561;-59
2021/03/16 14:33:47;;;;;;;13.93;2.58;;;17.40;64.90;;;;;;10453077;28;20037;-58
2021/03/16 14:38:48;;;;;;;12.32;2.03;;;17.30;64.60;;;;;;10448042;28;20033;-58
2021/03/16 14:43:49;;;;;;;11.52;2.33;;;17.40;64.30;;;;;;10453516;28;20041;-60
2021/03/16 14:48:49;;;;;;;15.27;1.75;;;17.40;64.50;;;;;;10463715;28;20548;-59
2021/03/16 14:53:50;;;;;;;16.27;3.28;;;17.40;64.30;;;;;;10473404;28;20184;-57
2021/03/16 14:58:51;;;;;;;18.92;3.15;;;17.40;64.20;;;;;;10456530;28;20582;-58
2021/03/16 15:03:52;;;;;;;24.67;5.45;;;17.50;64.60;;;;;;10453921;28;20104;-58
2021/03/16 15:08:52;;;;;;;23.48;3.97;;;17.50;64.60;;;;;;10453710;28;20029;-58
2021/03/16 15:13:53;;;;;;;26.45;4.43;;;17.50;64.20;;;;;;10453743;28;20155;-57
2021/03/16 15:18:54;;;;;;;16.60;3.33;;;17.50;64.50;;;;;;10469958;28;20148;-57
2021/03/16 15:23:54;;;;;;;26.70;5.53;;;17.50;63.90;;;;;;10453755;28;20432;-57
2021/03/16 15:28:55;;;;;;;25.52;11.38;;;17.40;63.70;;;;;;10479945;28;20048;-57
2021/03/16 15:33:56;;;;;;;20.30;6.97;;;17.40;65.90;;;;;;10460515;28;20625;-57
2021/03/16 15:38:56;;;;;;;18.63;6.63;;;17.30;64.10;;;;;;10469257;28;20492;-56
2021/03/16 15:43:57;;;;;;;14.18;5.50;;;17.30;62.90;;;;;;10469562;28;20033;-57
2021/03/16 15:48:58;;;;;;;16.40;5.35;;;17.40;62.40;;;;;;10469793;28;20029;-57
2021/03/16 15:53:59;;;;;;;11.88;5.03;;;17.50;61.50;;;;;;10467817;28;20107;-57
2021/03/16 15:58:59;;;;;;;9.60;4.05;;;17.50;61.00;;;;;;10471472;28;20582;-57
2021/03/16 16:04:00;;;;;;;12.73;4.35;;;17.60;61.00;;;;;;10469324;28;20025;-57
2021/03/16 16:09:01;;;;;;;11.05;3.90;;;17.70;60.90;;;;;;10475695;28;20031;-56
2021/03/16 16:14:02;;;;;;;14.68;4.15;;;17.60;60.80;;;;;;10450941;28;20076;-57
2021/03/16 16:19:03;;;;;;;10.45;3.42;;;17.70;60.90;;;;;;10450066;28;20068;-57
2021/03/16 16:24:04;;;;;;;12.85;3.10;;;17.70;60.80;;;;;;10450006;28;20520;-57
2021/03/16 16:29:05;;;;;;;7.78;2.90;;;17.60;60.90;;;;;;10465059;28;20694;-58
2021/03/16 16:34:06;;;;;;;7.93;3.17;;;17.60;61.00;;;;;;10450383;28;20033;-57
2021/03/16 16:39:07;;;;;;;10.73;3.97;;;17.60;61.10;;;;;;10447909;28;20194;-57
2021/03/16 16:44:08;;;;;;;7.13;2.42;;;17.60;60.90;;;;;;10449909;28;20413;-57
2021/03/16 16:49:09;;;;;;;9.30;2.80;;;17.60;60.90;;;;;;10449322;28;20039;-55
2021/03/16 16:54:09;;;;;;;8.52;2.88;;;17.60;61.10;;;;;;10460768;28;20045;-60
2021/03/16 16:59:10;;;;;;;29.42;4.65;;;17.60;61.30;;;;;;10454678;28;20071;-61
2021/03/16 17:04:11;;;;;;;13.13;3.35;;;17.60;62.20;;;;;;10449536;28;20101;-59
2021/03/16 17:09:12;;;;;;;22.77;3.72;;;17.60;62.10;;;;;;10456461;28;20028;-59
2021/03/16 17:14:12;;;;;;;15.63;4.00;;;17.70;63.30;;;;;;10483131;28;20120;-59
2021/03/16 17:19:13;;;;;;;16.30;3.50;;;17.70;63.40;;;;;;10455942;28;20037;-59
2021/03/16 17:24:14;;;;;;;14.90;2.90;;;17.80;63.80;;;;;;10456676;28;20063;-57
2021/03/16 17:29:15;;;;;;;16.55;2.55;;;17.80;63.40;;;;;;10456114;28;20059;-59
2021/03/16 17:34:16;;;;;;;13.90;3.30;;;17.80;64.10;;;;;;10454968;28;20541;-61
2021/03/16 17:39:17;;;;;;;15.75;2.85;;;17.80;64.60;;;;;;10474800;28;20126;-60
2021/03/16 17:44:17;;;;;;;30.63;4.50;;;17.90;65.40;;;;;;10476397;28;20052;-62
2021/03/16 17:49:18;;;;;;;42.05;6.82;;;17.80;65.80;;;;;;10456253;28;20112;-63
2021/03/16 17:54:19;;;;;;;32.05;6.30;;;17.80;66.00;;;;;;10455349;28;20077;-59
2021/03/16 17:59:20;;;;;;;33.10;6.50;;;17.80;67.50;;;;;;10455230;28;20484;-60
2021/03/16 18:04:21;;;;;;;29.20;6.03;;;17.80;67.40;;;;;;10461990;28;20040;-60
2021/03/16 18:09:21;;;;;;;30.52;6.57;;;17.80;66.90;;;;;;10472286;28;20112;-58
2021/03/16 18:14:22;;;;;;;30.70;5.75;;;17.80;66.70;;;;;;10452757;28;20075;-58
2021/03/16 18:19:23;;;;;;;23.40;5.45;;;17.70;66.60;;;;;;10452895;28;20076;-56
2021/03/16 18:24:23;;;;;;;29.35;4.95;;;17.70;66.20;;;;;;10471491;28;20032;-58
2021/03/16 18:29:24;;;;;;;22.40;4.57;;;17.70;67.40;;;;;;10476110;28;20029;-58
2021/03/16 18:34:25;;;;;;;26.00;5.18;;;17.60;66.80;;;;;;10464731;28;20036;-57
2021/03/16 18:39:27;;;;;;;15.90;4.10;;;17.60;67.10;;;;;;10470355;28;20501;-57
2021/03/16 18:44:29;;;;;;;20.48;4.78;;;17.60;67.50;;;;;;10464563;28;20029;-57
2021/03/16 18:49:30;;;;;;;12.98;3.50;;;17.60;67.70;;;;;;10495862;28;20508;-58
2021/03/16 18:54:32;;;;;;;14.93;4.35;;;17.60;67.90;;;;;;10462098;28;20100;-58
2021/03/16 18:59:32;;;;;;;15.32;3.75;;;17.60;67.70;;;;;;10467280;28;20029;-59
2021/03/16 19:04:33;;;;;;;23.90;5.68;;;17.50;67.50;;;;;;10462873;28;20029;-59
2021/03/16 19:09:34;;;;;;;20.63;4.85;;;17.50;67.10;;;;;;10445004;28;20398;-59
2021/03/16 19:14:35;;;;;;;18.02;4.32;;;17.40;67.00;;;;;;10429639;28;20136;-59
2021/03/16 19:19:36;;;;;;;14.27;3.88;;;17.40;66.90;;;;;;10428011;28;20366;-59
2021/03/16 19:24:36;;;;;;;13.95;3.55;;;17.40;66.90;;;;;;10431945;28;20048;-59
2021/03/16 19:29:37;;;;;;;9.35;3.10;;;17.40;66.70;;;;;;10445862;28;20638;-59
2021/03/16 19:34:38;;;;;;;12.18;4.07;;;17.40;66.60;;;;;;10456576;28;20037;-59
2021/03/16 19:39:39;;;;;;;17.10;3.30;;;17.40;66.60;;;;;;10459060;28;20144;-60
2021/03/16 19:44:39;;;;;;;13.05;3.55;;;17.40;66.40;;;;;;10459399;28;20068;-59
2021/03/16 19:49:40;;;;;;;8.02;2.67;;;17.40;66.30;;;;;;10463567;28;20052;-59
2021/03/16 19:54:41;;;;;;;6.25;2.17;;;17.40;66.20;;;;;;10467089;28;20029;-60
2021/03/16 19:59:43;;;;;;;10.25;3.40;;;17.40;66.10;;;;;;10478636;28;20488;-60
2021/03/16 20:04:44;;;;;;;8.13;2.90;;;17.50;66.00;;;;;;10481358;28;20068;-59
2021/03/16 20:09:44;;;;;;;10.70;3.47;;;17.50;66.30;;;;;;10458188;28;20055;-58
2021/03/16 20:14:45;;;;;;;10.10;3.45;;;17.50;65.90;;;;;;10458450;28;20056;-59
2021/03/16 20:19:45;;;;;;;9.13;2.85;;;17.50;65.60;;;;;;10476456;28;20132;-59
2021/03/16 20:24:46;;;;;;;9.05;2.47;;;17.50;65.50;;;;;;10457980;28;20060;-59
2021/03/16 20:29:47;;;;;;;9.30;2.63;;;17.50;65.40;;;;;;10476620;28;20028;-59
2021/03/16 20:34:48;;;;;;;7.68;2.15;;;17.50;65.20;;;;;;10457150;28;20119;-59
2021/03/16 20:39:48;;;;;;;5.28;1.40;;;17.60;65.20;;;;;;10478677;28;20075;-59
2021/03/16 20:44:49;;;;;;;10.30;1.75;;;17.50;65.00;;;;;;10494822;28;20028;-59
2021/03/16 20:49:50;;;;;;;5.80;1.88;;;17.60;65.00;;;;;;10471051;28;20112;-60
2021/03/16 20:54:51;;;;;;;5.05;2.10;;;17.60;64.80;;;;;;10457447;28;20041;-59
2021/03/16 20:59:52;;;;;;;6.97;1.70;;;17.60;64.70;;;;;;10471526;28;20024;-59
2021/03/16 21:04:53;;;;;;;6.43;1.70;;;17.60;64.60;;;;;;10498450;28;20046;-59
2021/03/16 21:09:53;;;;;;;4.80;1.60;;;17.60;64.50;;;;;;10469563;28;20373;-59
2021/03/16 21:14:54;;;;;;;6.60;1.92;;;17.60;64.40;;;;;;10488282;28;20442;-59
2021/03/16 21:19:55;;;;;;;8.88;1.80;;;17.60;64.30;;;;;;10468609;28;20040;-59
2021/03/16 21:24:56;;;;;;;5.85;1.92;;;17.60;64.30;;;;;;10471778;28;20663;-59
2021/03/16 21:29:56;;;;;;;8.02;2.60;;;17.60;64.00;;;;;;10476012;28;20063;-59
2021/03/16 21:34:57;;;;;;;7.60;1.77;;;17.60;64.00;;;;;;10456151;28;20072;-59
2021/03/16 21:39:58;;;;;;;5.25;1.40;;;17.60;63.90;;;;;;10480000;28;20060;-60
2021/03/16 21:44:59;;;;;;;5.63;1.90;;;17.60;63.80;;;;;;10494586;28;20433;-59
2021/03/16 21:49:59;;;;;;;5.13;1.67;;;17.60;63.60;;;;;;10491165;28;20032;-59
2021/03/16 21:55:00;;;;;;;6.65;1.60;;;17.60;63.60;;;;;;10496655;28;20028;-59
2021/03/16 22:00:01;;;;;;;5.18;1.25;;;17.70;63.50;;;;;;10465701;28;20041;-59
2021/03/16 22:05:08;;;;;;;4.35;1.60;;;17.60;63.40;;;;;;10454669;28;20378;-59
2021/03/16 22:10:15;;;;;;;4.22;1.08;;;17.60;63.30;;;;;;10455180;28;20076;-59
2021/03/16 22:15:16;;;;;;;2.97;1.27;;;17.70;63.40;;;;;;10461889;28;20068;-59
2021/03/16 22:20:18;;;;;;;3.05;1.00;;;17.60;63.20;;;;;;10477300;28;20087;-59
2021/03/16 22:25:19;;;;;;;3.47;1.23;;;17.60;63.20;;;;;;10454899;28;20028;-59
2021/03/16 22:30:20;;;;;;;5.57;1.20;;;17.60;63.10;;;;;;10468073;28;20033;-59
2021/03/16 22:35:21;;;;;;;2.05;0.85;;;17.70;63.10;;;;;;10454651;28;20033;-59
2021/03/16 22:40:22;;;;;;;3.65;1.02;;;17.60;63.00;;;;;;10474887;28;20389;-59
2021/03/16 22:45:23;;;;;;;3.97;1.08;;;17.60;63.50;;;;;;10456044;28;20040;-59
2021/03/16 22:50:23;;;;;;;5.18;0.98;;;17.70;63.00;;;;;;10495950;28;20393;-59
2021/03/16 22:55:24;;;;;;;1.95;0.90;;;17.60;62.90;;;;;;10486952;28;20090;-59
2021/03/16 23:00:28;;;;;;;3.47;0.95;;;17.70;62.90;;;;;;10470773;28;20107;-59
2021/03/16 23:05:29;;;;;;;7.00;1.00;;;17.70;62.80;;;;;;10454093;28;20482;-59
2021/03/16 23:10:29;;;;;;;3.78;0.75;;;17.70;62.80;;;;;;10459876;28;20079;-59
2021/03/16 23:15:30;;;;;;;3.95;1.50;;;17.70;62.70;;;;;;10459647;28;20083;-59
2021/03/16 23:20:40;;;;;;;3.40;1.15;;;17.70;62.60;;;;;;10471606;28;20089;-59
2021/03/16 23:25:46;;;;;;;3.67;0.98;;;17.70;62.60;;;;;;10488452;28;20473;-59
2021/03/16 23:30:49;;;;;;;2.80;0.82;;;17.70;62.60;;;;;;10462074;28;20115;-59
2021/03/16 23:35:51;;;;;;;2.83;1.00;;;17.70;62.50;;;;;;10471862;28;20116;-59
2021/03/16 23:40:53;;;;;;;8.85;1.67;;;17.70;62.50;;;;;;10465329;28;20124;-59
2021/03/16 23:45:54;;;;;;;2.95;0.82;;;17.70;62.40;;;;;;10488421;28;20024;-59
2021/03/16 23:50:58;;;;;;;2.83;1.08;;;17.70;62.40;;;;;;10498937;28;20033;-59
2021/03/16 23:55:59;;;;;;;3.10;0.88;;;17.70;62.30;;;;;;10459953;28;20049;-59
